createdAt,value
2018-04-25T00:01:25.287Z,98498.92
2018-04-25T00:03:52.672Z,98494.80
2018-04-25T00:06:20.104Z,98498.22
2018-04-25T00:08:47.487Z,98499.52
2018-04-25T00:11:14.953Z,98488.98
2018-04-25T00:13:42.401Z,98497.92
2018-04-25T00:16:09.808Z,98485.23
2018-04-25T00:18:37.203Z,98487.17
2018-04-25T00:21:04.600Z,98484.75
2018-04-25T00:23:32.796Z,98479.75
2018-04-25T00:26:00.175Z,98478.32
2018-04-25T00:28:27.570Z,98476.28
2018-04-25T00:30:54.968Z,98475.61
2018-04-25T00:33:22.354Z,98475.19
2018-04-25T00:35:49.753Z,98472.67
2018-04-25T00:38:17.180Z,98469.28
2018-04-25T00:40:44.561Z,98465.81
2018-04-25T00:43:11.942Z,98464.07
2018-04-25T00:45:39.442Z,98465.55
2018-04-25T00:48:06.817Z,98472.69
2018-04-25T00:50:34.222Z,98466.59
2018-04-25T00:53:01.614Z,98468.25
2018-04-25T00:55:29.008Z,98457.00
2018-04-25T00:57:56.800Z,98459.91
2018-04-25T01:00:24.203Z,98455.49
2018-04-25T01:02:51.675Z,98454.94
2018-04-25T01:05:19.082Z,98457.81
2018-04-25T01:07:46.472Z,98451.77
2018-04-25T01:10:13.864Z,98453.30
2018-04-25T01:12:41.395Z,98447.67
2018-04-25T01:15:08.813Z,98452.38
2018-04-25T01:17:36.235Z,98458.62
2018-04-25T01:20:03.639Z,98457.26
2018-04-25T01:22:31.688Z,98445.01
2018-04-25T01:25:01.853Z,98445.38
2018-04-25T01:27:31.773Z,98441.71
2018-04-25T01:29:59.172Z,98437.48
2018-04-25T01:32:26.817Z,98438.66
2018-04-25T01:34:58.175Z,98437.89
2018-04-25T01:37:34.938Z,98429.61
2018-04-25T01:40:04.060Z,98437.55
2018-04-25T01:42:37.768Z,98428.70
2018-04-25T01:45:11.756Z,98435.64
2018-04-25T01:47:39.156Z,98433.24
2018-04-25T01:50:12.332Z,98427.08
2018-04-25T01:52:51.767Z,98421.03
2018-04-25T01:55:30.919Z,98416.98
2018-04-25T01:58:10.191Z,98420.05
2018-04-25T02:00:49.400Z,98422.36
2018-04-25T02:03:17.575Z,98416.45
2018-04-25T02:05:44.944Z,98415.56
2018-04-25T02:08:12.333Z,98413.09
2018-04-25T02:10:39.710Z,98411.84
2018-04-25T02:13:07.135Z,98406.85
2018-04-25T02:15:34.536Z,98405.17
2018-04-25T02:18:01.925Z,98399.28
2018-04-25T02:20:29.408Z,98398.71
2018-04-25T02:22:56.985Z,98404.41
2018-04-25T02:25:24.368Z,98396.77
2018-04-25T02:27:51.764Z,98395.13
2018-04-25T02:30:19.342Z,98394.58
2018-04-25T02:32:46.729Z,98391.80
2018-04-25T02:35:14.112Z,98391.38
2018-04-25T02:37:41.792Z,98393.05
2018-04-25T02:40:09.177Z,98390.75
2018-04-25T02:42:37.426Z,98388.47
2018-04-25T02:45:04.817Z,98387.42
2018-04-25T02:47:32.213Z,98386.67
2018-04-25T02:49:59.599Z,98383.27
2018-04-25T02:52:26.985Z,98388.47
2018-04-25T02:54:54.422Z,98388.32
2018-04-25T02:57:21.831Z,98387.00
2018-04-25T02:59:49.225Z,98382.28
2018-04-25T03:02:16.608Z,98374.84
2018-04-25T03:04:44.221Z,98374.84
2018-04-25T03:07:11.607Z,98377.41
2018-04-25T03:09:39.408Z,98375.13
2018-04-25T03:12:06.805Z,98376.84
2018-04-25T03:14:34.914Z,98374.20
2018-04-25T03:17:02.301Z,98379.80
2018-04-25T03:19:29.707Z,98384.34
2018-04-25T03:21:57.200Z,98386.55
2018-04-25T03:24:24.600Z,98387.04
2018-04-25T03:26:51.983Z,98389.94
2018-04-25T03:29:19.456Z,98387.52
2018-04-25T03:31:46.848Z,98389.59
2018-04-25T03:34:14.820Z,98378.29
2018-04-25T03:36:42.206Z,98384.06
2018-04-25T03:39:09.597Z,98379.08
2018-04-25T03:41:36.983Z,98380.31
2018-04-25T03:44:04.388Z,98381.56
2018-04-25T03:46:31.904Z,98384.32
2018-04-25T03:48:59.302Z,98381.09
2018-04-25T03:51:26.687Z,98379.97
2018-04-25T03:53:54.083Z,98373.59
2018-04-25T03:56:21.632Z,98375.31
2018-04-25T03:58:49.036Z,98373.91
2018-04-25T04:01:16.424Z,98369.89
2018-04-25T04:03:43.821Z,98368.19
2018-04-25T04:06:12.816Z,98363.14
2018-04-25T04:08:40.209Z,98363.10
2018-04-25T04:11:07.675Z,98358.71
2018-04-25T04:13:35.036Z,98365.16
2018-04-25T04:16:02.443Z,98353.23
2018-04-25T04:18:29.832Z,98356.91
2018-04-25T04:20:57.269Z,98345.14
2018-04-25T04:23:25.578Z,98348.02
2018-04-25T04:25:52.976Z,98343.65
2018-04-25T04:28:20.356Z,98335.44
2018-04-25T04:30:47.796Z,98342.03
2018-04-25T04:33:15.192Z,98338.47
2018-04-25T04:35:43.374Z,98341.34
2018-04-25T04:38:10.751Z,98342.08
2018-04-25T04:40:38.727Z,98351.25
2018-04-25T04:43:06.095Z,98356.38
2018-04-25T04:45:33.496Z,98356.17
2018-04-25T04:48:00.876Z,98352.86
2018-04-25T04:50:28.277Z,98351.84
2018-04-25T04:52:55.664Z,98346.61
2018-04-25T04:55:23.072Z,98355.30
2018-04-25T04:57:50.972Z,98360.18
2018-04-25T05:00:18.364Z,98350.94
2018-04-25T05:02:45.971Z,98357.38
2018-04-25T05:05:13.365Z,98364.73
2018-04-25T05:07:40.753Z,98357.23
2018-04-25T05:10:08.144Z,98354.63
2018-04-25T05:12:35.536Z,98359.51
2018-04-25T05:15:02.984Z,98369.30
2018-04-25T05:17:30.374Z,98363.95
2018-04-25T05:19:58.171Z,98367.67
2018-04-25T05:22:26.460Z,98369.53
2018-04-25T05:24:53.847Z,98357.86
2018-04-25T05:27:21.467Z,98357.22
2018-04-25T05:29:49.075Z,98353.67
2018-04-25T05:32:16.465Z,98357.16
2018-04-25T05:34:43.853Z,98352.47
2018-04-25T05:37:11.262Z,98359.64
2018-04-25T05:39:38.645Z,98362.13
2018-04-25T05:42:06.937Z,98360.02
2018-04-25T05:44:34.330Z,98362.28
2018-04-25T05:47:01.972Z,98350.89
2018-04-25T05:49:29.351Z,98357.27
2018-04-25T05:51:56.745Z,98356.40
2018-04-25T05:54:24.136Z,98353.59
2018-04-25T05:56:51.602Z,98354.48
2018-04-25T05:59:18.985Z,98348.09
2018-04-25T06:01:47.072Z,98348.91
2018-04-25T06:04:14.504Z,98352.54
2018-04-25T06:06:41.888Z,98351.70
2018-04-25T06:09:09.270Z,98357.39
2018-04-25T06:11:36.688Z,98356.89
2018-04-25T06:14:04.116Z,98354.66
2018-04-25T06:16:31.503Z,98349.94
2018-04-25T06:18:58.916Z,98353.48
2018-04-25T06:21:26.405Z,98367.86
2018-04-25T06:23:53.885Z,98358.34
2018-04-25T06:26:21.288Z,98362.55
2018-04-25T06:28:48.684Z,98366.88
2018-04-25T06:31:16.133Z,98364.37
2018-04-25T06:33:43.525Z,98360.58
2018-04-25T06:36:10.925Z,98370.09
2018-04-25T06:38:38.323Z,98365.19
2018-04-25T06:41:05.776Z,98360.55
2018-04-25T06:43:33.171Z,98356.66
2018-04-25T06:46:00.555Z,98374.80
2018-04-25T06:48:28.032Z,98371.28
2018-04-25T06:50:55.596Z,98373.81
2018-04-25T06:53:22.989Z,98365.25
2018-04-25T06:55:50.380Z,98379.94
2018-04-25T06:58:18.818Z,98378.52
2018-04-25T07:00:46.213Z,98384.45
2018-04-25T07:03:13.607Z,98386.03
2018-04-25T07:05:41.853Z,98381.80
2018-04-25T07:08:09.280Z,98379.16
2018-04-25T07:10:36.632Z,98374.33
2018-04-25T07:13:04.035Z,98370.58
2018-04-25T07:15:31.524Z,98362.69
2018-04-25T07:17:58.932Z,98365.48
2018-04-25T07:20:26.328Z,98366.09
2018-04-25T07:22:53.727Z,98369.56
2018-04-25T07:25:21.104Z,98372.66
2018-04-25T07:27:49.120Z,98377.30
2018-04-25T07:30:16.658Z,98373.77
2018-04-25T07:32:44.053Z,98362.87
2018-04-25T07:35:11.456Z,98381.72
2018-04-25T07:37:38.844Z,98374.18
2018-04-25T07:40:06.704Z,98376.25
2018-04-25T07:42:34.116Z,98371.94
2018-04-25T07:45:01.514Z,98375.27
2018-04-25T07:47:28.956Z,98361.66
2018-04-25T07:49:56.358Z,98363.86
2018-04-25T07:52:23.748Z,98363.31
2018-04-25T07:54:51.145Z,98349.73
2018-04-25T07:57:18.595Z,98359.58
2018-04-25T07:59:46.001Z,98361.81
2018-04-25T08:02:13.384Z,98357.09
2018-04-25T08:04:40.779Z,98352.64
2018-04-25T08:07:08.668Z,98365.51
2018-04-25T08:09:36.069Z,98358.30
2018-04-25T08:12:03.459Z,98358.14
2018-04-25T08:14:42.737Z,98369.43
2018-04-25T08:17:21.799Z,98374.00
2018-04-25T08:20:00.953Z,98373.44
2018-04-25T08:22:28.352Z,98369.65
2018-04-25T08:24:55.752Z,98367.90
2018-04-25T08:27:23.139Z,98372.80
2018-04-25T08:29:50.740Z,98377.20
2018-04-25T08:32:18.130Z,98371.19
2018-04-25T08:34:45.536Z,98380.85
2018-04-25T08:37:12.943Z,98374.83
2018-04-25T08:39:40.335Z,98386.61
2018-04-25T08:42:07.745Z,98379.20
2018-04-25T08:44:35.193Z,98382.44
2018-04-25T08:47:02.538Z,98388.98
2018-04-25T08:49:29.949Z,98387.61
2018-04-25T08:51:57.399Z,98391.85
2018-04-25T08:54:24.783Z,98391.85
2018-04-25T08:56:53.077Z,98397.12
2018-04-25T08:59:20.491Z,98380.54
2018-04-25T09:01:47.900Z,98387.99
2018-04-25T09:04:15.663Z,98388.55
2018-04-25T09:06:43.059Z,98382.95
2018-04-25T09:09:10.444Z,98380.50
2018-04-25T09:11:37.845Z,98381.12
2018-04-25T09:14:05.227Z,98377.63
2018-04-25T09:16:32.624Z,98379.28
2018-04-25T09:19:00.479Z,98372.58
2018-04-25T09:21:27.856Z,98379.09
2018-04-25T09:23:55.264Z,98387.11
2018-04-25T09:26:23.076Z,98380.69
2018-04-25T09:28:50.651Z,98386.60
2018-04-25T09:31:18.044Z,98391.39
2018-04-25T09:33:45.444Z,98387.89
2018-04-25T09:36:12.968Z,98389.30
2018-04-25T09:38:40.608Z,98377.48
2018-04-25T09:41:08.005Z,98372.97
2018-04-25T09:43:35.392Z,98375.44
2018-04-25T09:46:03.319Z,98371.85
2018-04-25T09:48:30.628Z,98362.71
2018-04-25T09:50:58.030Z,98376.07
2018-04-25T09:53:25.426Z,98379.67
2018-04-25T09:55:53.403Z,98375.31
2018-04-25T09:58:20.803Z,98397.04
2018-04-25T10:00:53.833Z,98391.73
2018-04-25T10:03:23.012Z,98390.30
2018-04-25T10:05:50.407Z,98398.34
2018-04-25T10:08:18.335Z,98393.30
2018-04-25T10:10:45.750Z,98403.53
2018-04-25T10:13:13.122Z,98406.05
2018-04-25T10:15:40.532Z,98389.14
2018-04-25T10:18:08.500Z,98403.81
2018-04-25T10:20:35.920Z,98398.44
2018-04-25T10:23:03.324Z,98401.15
2018-04-25T10:25:30.765Z,98400.98
2018-04-25T10:27:58.328Z,98410.73
2018-04-25T10:30:25.714Z,98402.75
2018-04-25T10:32:53.104Z,98413.40
2018-04-25T10:35:20.502Z,98415.66
2018-04-25T10:37:48.735Z,98409.55
2018-04-25T10:40:16.108Z,98402.82
2018-04-25T10:42:43.513Z,98409.22
2018-04-25T10:45:10.895Z,98417.64
2018-04-25T10:47:38.300Z,98417.08
2018-04-25T10:50:05.683Z,98409.81
2018-04-25T10:52:33.084Z,98408.10
2018-04-25T10:55:00.560Z,98411.30
2018-04-25T10:57:27.958Z,98421.55
2018-04-25T10:59:55.352Z,98404.22
2018-04-25T11:02:24.568Z,98408.98
2018-04-25T11:04:51.972Z,98406.60
2018-04-25T11:07:19.387Z,98402.80
2018-04-25T11:09:46.907Z,98408.58
2018-04-25T11:12:14.929Z,98406.73
2018-04-25T11:14:42.320Z,98396.66
2018-04-25T11:17:09.891Z,98402.67
2018-04-25T11:19:37.278Z,98409.40
2018-04-25T11:22:04.668Z,98403.10
2018-04-25T11:24:32.283Z,98412.36
2018-04-25T11:26:59.671Z,98411.11
2018-04-25T11:29:27.289Z,98410.92
2018-04-25T11:31:55.032Z,98408.56
2018-04-25T11:34:22.440Z,98407.81
2018-04-25T11:36:49.836Z,98406.98
2018-04-25T11:39:17.236Z,98416.09
2018-04-25T11:41:44.633Z,98420.45
2018-04-25T11:44:12.038Z,98422.80
2018-04-25T11:46:39.432Z,98417.50
2018-04-25T11:49:06.841Z,98414.70
2018-04-25T11:51:35.128Z,98423.20
2018-04-25T11:54:02.517Z,98423.16
2018-04-25T11:56:29.904Z,98421.61
2018-04-25T11:58:57.421Z,98422.41
2018-04-25T12:01:24.908Z,98420.96
2018-04-25T12:03:52.299Z,98411.89
2018-04-25T12:06:19.688Z,98425.34
2018-04-25T12:08:47.269Z,98423.67
2018-04-25T12:11:14.681Z,98429.34
2018-04-25T12:13:42.073Z,98432.34
2018-04-25T12:16:09.454Z,98440.63
2018-04-25T12:18:37.065Z,98440.17
2018-04-25T12:21:04.440Z,98452.93
2018-04-25T12:23:32.135Z,98455.40
2018-04-25T12:25:59.852Z,98454.06
2018-04-25T12:28:28.133Z,98442.84
2018-04-25T12:30:55.519Z,98453.71
2018-04-25T12:33:22.935Z,98450.73
2018-04-25T12:35:50.804Z,98460.98
2018-04-25T12:38:18.125Z,98461.72
2018-04-25T12:40:45.515Z,98463.86
2018-04-25T12:43:12.936Z,98464.75
2018-04-25T12:45:40.327Z,98470.98
2018-04-25T12:48:07.712Z,98476.34
2018-04-25T12:50:35.155Z,98473.09
2018-04-25T12:53:02.617Z,98474.88
2018-04-25T12:55:30.393Z,98466.43
2018-04-25T12:57:58.677Z,98479.78
2018-04-25T13:00:26.102Z,98480.66
2018-04-25T13:02:53.487Z,98472.24
2018-04-25T13:05:20.880Z,98474.02
2018-04-25T13:07:48.302Z,98472.34
2018-04-25T13:10:15.680Z,98476.47
2018-04-25T13:12:44.080Z,98468.63
2018-04-25T13:15:11.484Z,98486.16
2018-04-25T13:17:38.945Z,98477.36
2018-04-25T13:20:06.320Z,98474.45
2018-04-25T13:22:33.712Z,98474.58
2018-04-25T13:25:01.730Z,98476.25
2018-04-25T13:27:29.116Z,98471.19
2018-04-25T13:29:56.527Z,98466.32
2018-04-25T13:32:23.911Z,98478.30
2018-04-25T13:34:51.409Z,98474.27
2018-04-25T13:37:18.803Z,98485.39
2018-04-25T13:39:46.183Z,98481.70
2018-04-25T13:42:13.586Z,98474.88
2018-04-25T13:44:41.931Z,98475.33
2018-04-25T13:47:09.322Z,98463.80
2018-04-25T13:49:36.897Z,98467.84
2018-04-25T13:52:05.088Z,98468.98
2018-04-25T13:54:32.471Z,98459.69
2018-04-25T13:56:59.874Z,98458.09
2018-04-25T13:59:27.315Z,98459.19
2018-04-25T14:01:54.711Z,98458.63
2018-04-25T14:04:22.100Z,98452.89
2018-04-25T14:06:49.518Z,98450.97
2018-04-25T14:09:17.483Z,98454.75
2018-04-25T14:11:44.868Z,98457.66
2018-04-25T14:14:12.263Z,98447.35
2018-04-25T14:16:39.650Z,98448.11
2018-04-25T14:19:07.111Z,98449.31
2018-04-25T14:21:35.390Z,98455.55
2018-04-25T14:24:03.279Z,98452.45
2018-04-25T14:26:30.665Z,98454.98
2018-04-25T14:28:58.051Z,98466.84
2018-04-25T14:31:25.448Z,98456.08
2018-04-25T14:33:53.776Z,98449.67
2018-04-25T14:36:21.172Z,98443.48
2018-04-25T14:38:48.560Z,98438.67
2018-04-25T14:41:17.460Z,98429.38
2018-04-25T14:43:44.868Z,98439.30
2018-04-25T14:46:12.246Z,98425.07
2018-04-25T14:48:39.652Z,98419.92
2018-04-25T14:51:07.038Z,98437.77
2018-04-25T14:53:35.431Z,98431.33
2018-04-25T14:56:02.815Z,98441.69
2018-04-25T14:58:30.222Z,98433.94
2018-04-25T15:00:57.635Z,98447.88
2018-04-25T15:03:25.065Z,98443.03
2018-04-25T15:05:53.335Z,98450.56
2018-04-25T15:08:20.751Z,98453.22
2018-04-25T15:10:48.128Z,98450.80
2018-04-25T15:13:15.664Z,98449.50
2018-04-25T15:15:43.044Z,98452.14
2018-04-25T15:18:10.432Z,98445.59
2018-04-25T15:20:37.807Z,98435.08
2018-04-25T15:23:05.222Z,98439.97
2018-04-25T15:25:32.658Z,98436.70
2018-04-25T15:27:59.991Z,98429.84
2018-04-25T15:30:27.485Z,98436.28
2018-04-25T15:32:54.935Z,98438.41
2018-04-25T15:35:22.345Z,98451.80
2018-04-25T15:37:49.859Z,98440.64
2018-04-25T15:40:17.252Z,98441.98
2018-04-25T15:42:44.647Z,98446.60
2018-04-25T15:45:12.023Z,98451.69
2018-04-25T15:47:39.407Z,98448.61
2018-04-25T15:50:06.796Z,98445.59
2018-04-25T15:52:34.191Z,98443.44
2018-04-25T15:55:01.576Z,98438.26
2018-04-25T15:57:28.959Z,98444.78
2018-04-25T15:59:56.365Z,98442.11
2018-04-25T16:02:24.083Z,98434.70
2018-04-25T16:04:51.467Z,98438.24
2018-04-25T16:07:19.320Z,98438.84
2018-04-25T16:09:46.708Z,98443.34
2018-04-25T16:12:14.093Z,98438.33
2018-04-25T16:14:41.496Z,98443.92
2018-04-25T16:17:08.940Z,98436.57
2018-04-25T16:19:37.271Z,98442.99
2018-04-25T16:22:04.659Z,98438.61
2018-04-25T16:24:32.047Z,98441.16
2018-04-25T16:26:59.435Z,98446.13
2018-04-25T16:29:27.155Z,98435.14
2018-04-25T16:31:54.854Z,98439.66
2018-04-25T16:34:23.360Z,98432.32
2018-04-25T16:36:50.747Z,98436.22
2018-04-25T16:39:18.332Z,98424.41
2018-04-25T16:41:45.721Z,98422.44
2018-04-25T16:44:13.116Z,98432.04
2018-04-25T16:46:41.777Z,98424.61
2018-04-25T16:49:09.176Z,98422.78
2018-04-25T16:51:36.565Z,98420.66
2018-04-25T16:54:03.961Z,98423.14
2018-04-25T16:56:31.344Z,98421.00
2018-04-25T16:58:59.093Z,98417.58
2018-04-25T17:01:26.929Z,98420.58
2018-04-25T17:03:54.572Z,98410.42
2018-04-25T17:06:21.941Z,98417.05
2018-04-25T17:08:49.317Z,98409.98
2018-04-25T17:11:17.049Z,98420.69
2018-04-25T17:13:44.777Z,98417.16
2018-04-25T17:16:12.178Z,98418.72
2018-04-25T17:18:39.861Z,98424.42
2018-04-25T17:21:07.277Z,98427.34
2018-04-25T17:23:34.661Z,98427.34
2018-04-25T17:26:02.058Z,98429.91
2018-04-25T17:28:29.755Z,98430.63
2018-04-25T17:30:57.131Z,98439.78
2018-04-25T17:33:26.033Z,98433.09
2018-04-25T17:35:53.417Z,98429.20
2018-04-25T17:38:20.792Z,98439.34
2018-04-25T17:40:48.903Z,98435.27
2018-04-25T17:43:16.356Z,98430.42
2018-04-25T17:45:43.760Z,98437.72
2018-04-25T17:48:11.148Z,98436.81
2018-04-25T17:50:38.974Z,98439.30
2018-04-25T17:53:06.350Z,98440.16
2018-04-25T17:55:33.750Z,98446.13
2018-04-25T17:58:01.210Z,98438.89
2018-04-25T18:00:28.704Z,98441.86
2018-04-25T18:02:56.097Z,98441.13
2018-04-25T18:05:23.519Z,98439.36
2018-04-25T18:07:50.906Z,98437.13
2018-04-25T18:10:18.308Z,98436.22
2018-04-25T18:12:45.695Z,98438.63
2018-04-25T18:15:13.104Z,98434.55
2018-04-25T18:17:40.493Z,98449.49
2018-04-25T18:20:08.503Z,98445.86
2018-04-25T18:22:35.888Z,98454.21
2018-04-25T18:25:03.280Z,98459.34
2018-04-25T18:27:31.755Z,98459.63
2018-04-25T18:29:59.137Z,98465.52
2018-04-25T18:32:26.544Z,98462.27
2018-04-25T18:34:53.911Z,98470.06
2018-04-25T18:37:21.889Z,98479.17
2018-04-25T18:39:49.228Z,98475.44
2018-04-25T18:42:16.628Z,98477.02
2018-04-25T18:44:44.022Z,98488.32
2018-04-25T18:47:11.419Z,98478.86
2018-04-25T18:49:38.807Z,98476.89
2018-04-25T18:52:06.892Z,98485.73
2018-04-25T18:54:34.277Z,98477.70
2018-04-25T18:57:01.664Z,98483.75
2018-04-25T18:59:29.042Z,98493.53
2018-04-25T19:01:56.433Z,98491.55
2018-04-25T19:04:23.821Z,98488.22
2018-04-25T19:06:51.207Z,98496.05
2018-04-25T19:09:18.829Z,98505.69
2018-04-25T19:11:46.247Z,98508.68
2018-04-25T19:14:13.631Z,98517.27
2018-04-25T19:16:41.038Z,98513.66
2018-04-25T19:19:09.061Z,98521.70
2018-04-25T19:21:36.517Z,98523.45
2018-04-25T19:24:03.904Z,98525.66
2018-04-25T19:26:32.407Z,98530.87
2018-04-25T19:28:59.811Z,98534.84
2018-04-25T19:31:27.193Z,98538.99
2018-04-25T19:33:55.014Z,98545.87
2018-04-25T19:36:22.592Z,98549.73
2018-04-25T19:38:50.012Z,98549.84
2018-04-25T19:41:17.414Z,98552.91
2018-04-25T19:43:44.822Z,98555.04
2018-04-25T19:46:12.255Z,98561.95
2018-04-25T19:48:39.680Z,98565.97
2018-04-25T19:51:07.378Z,98567.78
2018-04-25T19:53:34.845Z,98563.00
2018-04-25T19:56:02.204Z,98577.28
2018-04-25T19:58:30.475Z,98582.61
2018-04-25T20:00:57.912Z,98599.33
2018-04-25T20:03:25.304Z,98599.52
2018-04-25T20:05:52.701Z,98591.41
2018-04-25T20:08:20.138Z,98605.06
2018-04-25T20:10:47.644Z,98602.53
2018-04-25T20:13:15.901Z,98602.00
2018-04-25T20:15:43.426Z,98603.67
2018-04-25T20:18:10.821Z,98599.03
2018-04-25T20:20:38.210Z,98608.61
2018-04-25T20:23:05.615Z,98615.70
2018-04-25T20:25:33.114Z,98619.55
2018-04-25T20:28:00.508Z,98622.63
2018-04-25T20:30:27.892Z,98629.62
2018-04-25T20:32:55.384Z,98628.76
2018-04-25T20:35:22.788Z,98637.28
2018-04-25T20:37:50.176Z,98642.09
2018-04-25T20:40:17.752Z,98638.44
2018-04-25T20:42:45.275Z,98644.16
2018-04-25T20:45:12.667Z,98638.23
2018-04-25T20:47:40.471Z,98646.28
2018-04-25T20:50:07.873Z,98652.14
2018-04-25T20:52:35.348Z,98653.80
2018-04-25T20:55:02.757Z,98655.91
2018-04-25T20:57:30.142Z,98655.49
2018-04-25T20:59:57.842Z,98657.98
2018-04-25T21:02:25.257Z,98658.39
2018-04-25T21:04:52.623Z,98656.70
2018-04-25T21:07:20.084Z,98672.31
2018-04-25T21:09:48.544Z,98664.48
2018-04-25T21:12:15.938Z,98675.05
2018-04-25T21:14:43.338Z,98668.61
2018-04-25T21:17:10.749Z,98672.83
2018-04-25T21:19:38.141Z,98660.78
2018-04-25T21:22:06.292Z,98666.28
2018-04-25T21:24:34.529Z,98662.53
2018-04-25T21:27:01.909Z,98672.09
2018-04-25T21:29:29.308Z,98666.38
2018-04-25T21:31:56.771Z,98665.79
2018-04-25T21:34:24.471Z,98664.59
2018-04-25T21:36:51.856Z,98672.25
2018-04-25T21:39:19.650Z,98680.45
2018-04-25T21:41:47.032Z,98685.17
2018-04-25T21:44:14.412Z,98691.45
2018-04-25T21:46:41.817Z,98700.94
2018-04-25T21:49:09.850Z,98704.64
2018-04-25T21:51:37.252Z,98705.72
2018-04-25T21:54:04.644Z,98707.19
2018-04-25T21:56:32.137Z,98701.49
2018-04-25T21:58:59.761Z,98706.13
2018-04-25T22:02:37.290Z,98704.60
2018-04-25T22:05:04.705Z,98704.33
2018-04-25T22:07:32.239Z,98715.02
2018-04-25T22:09:59.625Z,98716.55
2018-04-25T22:12:27.027Z,98726.89
2018-04-25T22:14:54.555Z,98726.38
2018-04-25T22:17:22.017Z,98724.71
2018-04-25T22:19:50.222Z,98732.93
2018-04-25T22:22:17.633Z,98741.61
2018-04-25T22:24:45.290Z,98750.28
2018-04-25T22:27:12.679Z,98762.59
2018-04-25T22:29:40.069Z,98752.63
2018-04-25T22:32:07.455Z,98748.34
2018-04-25T22:34:34.907Z,98745.03
2018-04-25T22:37:02.291Z,98738.36
2018-04-25T22:39:30.045Z,98740.64
2018-04-25T22:41:57.441Z,98743.61
2018-04-25T22:44:24.823Z,98741.95
2018-04-25T22:46:52.224Z,98731.75
2018-04-25T22:49:19.604Z,98726.90
2018-04-25T22:51:47.171Z,98733.23
2018-04-25T22:54:14.565Z,98739.72
2018-04-25T22:56:41.956Z,98744.31
2018-04-25T22:59:09.377Z,98744.92
2018-04-25T23:01:36.863Z,98738.40
2018-04-25T23:04:04.778Z,98732.19
2018-04-25T23:06:32.174Z,98726.95
2018-04-25T23:08:59.549Z,98724.97
2018-04-25T23:11:26.940Z,98721.77
2018-04-25T23:13:54.332Z,98711.39
2018-04-25T23:16:21.975Z,98712.89
2018-04-25T23:18:49.383Z,98715.72
2018-04-25T23:21:16.769Z,98722.73
2018-04-25T23:23:44.168Z,98721.94
2018-04-25T23:26:11.570Z,98718.49
2018-04-25T23:28:38.958Z,98717.42
2018-04-25T23:31:06.343Z,98718.23
2018-04-25T23:33:33.730Z,98717.70
2018-04-25T23:36:01.258Z,98720.28
2018-04-25T23:38:28.658Z,98724.66
2018-04-25T23:40:56.047Z,98727.05
2018-04-25T23:43:23.436Z,98725.39
2018-04-25T23:45:51.728Z,98726.86
2018-04-25T23:48:19.133Z,98730.68
2018-04-25T23:50:46.517Z,98730.41
2018-04-25T23:53:14.027Z,98729.37
2018-04-25T23:55:41.407Z,98732.09
2018-04-25T23:58:08.813Z,98732.70
